Flight Track Log - Related Links

Times and Time Zones

All times are in EDT time to prevent confusion due to time zone crossing. See the N409RA flight status page for this flight to view local times or setup timezone preferences in your user account.

Time Position Orientation Groundspeed Altitude Reporting Facility
EDT Latitude Longitude Course Direction KTS MPH feet Rate Location/Type
Tue 04:49:47 PM 43.5817 -116.2942 134° Southeast 161 185 4,700  Level Salt Lake Center
Tue 04:50:49 PM 43.5906 -116.3581 281° West 164 189 6,200 1,403 Climbing Salt Lake Center
Tue 04:51:51 PM 43.5411 -116.3558 178° South 174 200 7,600 1,016 Climbing Salt Lake Center
Tue 04:52:53 PM 43.4936 -116.3133 147° Southeast 208 239 8,300 823 Climbing Salt Lake Center
Tue 04:53:55 PM 43.4589 -116.2447 125° Southeast 211 243 9,300 871 Climbing Salt Lake Center
Tue 04:54:57 PM 43.4272 -116.1814 125° Southeast 210 242 10,100 823 Climbing Salt Lake Center
Tue 04:55:00 PM 43.3289 -115.8366 134° Southeast  Level Estimated
Tue 04:55:59 PM 43.3889 -116.1133 128° Southeast 215 247 11,000  Level Salt Lake Center
Tue 04:57:01 PM 43.3497 -116.0422 127° Southeast 222 255 11,800 726 Climbing Salt Lake Center
Tue 04:58:03 PM 43.3097 -115.9692 127° Southeast 229 264 12,500 677 Climbing Salt Lake Center
Tue 04:59:05 PM 43.2700 -115.8950 126° Southeast 232 267 13,200 677 Climbing Salt Lake Center
Tue 05:00:07 PM 43.2317 -115.8250 127° Southeast 237 273 13,900 726 Climbing Salt Lake Center
Tue 05:01:09 PM 43.1897 -115.7489 127° Southeast 239 275 14,700 532 Climbing Salt Lake Center
Tue 05:02:11 PM 43.1464 -115.6717 128° Southeast 245 282 15,000 97 Climbing Salt Lake Center
Tue 05:03:13 PM 43.0994 -115.5900 128° Southeast 258 297 14,900 -48 Descending Salt Lake Center
Tue 05:04:15 PM 43.0517 -115.5064 128° Southeast 266 306 14,900  Level Salt Lake Center
Tue 05:05:17 PM 43.0000 -115.4289 132° Southeast 263 303 14,900  Level Salt Lake Center
Tue 05:06:19 PM 42.9539 -115.3544 130° Southeast 265 305 14,900 48 Level Salt Lake Center
Tue 05:07:21 PM 42.9033 -115.2764 131° Southeast 262 302 15,000 -143 Climbing Salt Lake Center
Tue 05:08:25 PM 42.8531 -115.1986 131° Southeast 263 303 14,600 -1,016 Descending Salt Lake Center
Tue 05:09:25 PM 42.7953 -115.1117 132° Southeast 295 339 12,900 -1,574 Descending Salt Lake Center
Tue 05:10:27 PM 42.7392 -115.0208 130° Southeast 304 350 11,400 -1,452 Descending Salt Lake Center
Tue 05:11:29 PM 42.6822 -114.9325 131° Southeast 298 343 9,900 -1,344 Descending Salt Lake Center
Tue 05:12:32 PM 42.6272 -114.8494 132° Southeast 288 331 8,600 -1,152 Descending Salt Lake Center
Tue 05:13:34 PM 42.5819 -114.7789 131° Southeast 263 303 7,500 -1,065 Descending Salt Lake Center

Login

Don't have an account? Register now (free) for customized features, flight alerts, and more!